createdAt,value
2018-12-14T00:01:52.356Z,51.27
2018-12-14T00:04:19.835Z,52.77
2018-12-14T00:06:47.341Z,52.03
2018-12-14T00:09:14.858Z,51.03
2018-12-14T00:11:45.548Z,50.47
2018-12-14T00:14:11.836Z,59.17
2018-12-14T00:16:39.580Z,55.77
2018-12-14T00:19:07.056Z,50.47
2018-12-14T00:21:34.532Z,60.10
2018-12-14T00:24:02.040Z,55.63
2018-12-14T00:26:29.552Z,56.90
2018-12-14T00:28:57.429Z,57.70
2018-12-14T00:31:24.946Z,56.27
2018-12-14T00:33:52.420Z,52.60
2018-12-14T00:36:19.907Z,55.00
2018-12-14T00:38:47.408Z,58.10
2018-12-14T00:41:14.884Z,58.57
2018-12-14T00:43:42.365Z,55.57
2018-12-14T00:46:09.864Z,56.60
2018-12-14T00:48:37.340Z,53.73
2018-12-14T00:51:04.822Z,53.27
2018-12-14T00:53:32.334Z,53.80
2018-12-14T00:55:59.808Z,51.53
2018-12-14T00:58:27.285Z,54.57
2018-12-14T01:00:54.786Z,54.00
2018-12-14T01:03:22.271Z,50.63
2018-12-14T01:05:49.745Z,57.33
2018-12-14T01:08:17.384Z,52.60
2018-12-14T01:10:44.867Z,51.67
2018-12-14T01:13:12.344Z,51.77
2018-12-14T01:15:39.876Z,53.87
2018-12-14T01:18:07.363Z,51.40
2018-12-14T01:20:34.847Z,53.83
2018-12-14T01:23:02.737Z,49.53
2018-12-14T01:25:30.217Z,49.23
2018-12-14T01:27:57.725Z,52.50
2018-12-14T01:30:25.723Z,56.33
2018-12-14T01:32:53.220Z,52.23
2018-12-14T01:35:20.696Z,49.80
2018-12-14T01:37:48.197Z,55.40
2018-12-14T01:40:15.676Z,54.07
2018-12-14T01:42:43.148Z,48.53
2018-12-14T01:45:10.661Z,50.73
2018-12-14T01:47:38.144Z,51.63
2018-12-14T01:50:05.621Z,58.27
2018-12-14T01:52:33.626Z,57.43
2018-12-14T01:55:01.102Z,57.50
2018-12-14T01:57:29.072Z,53.63
2018-12-14T01:59:56.567Z,46.23
2018-12-14T02:02:24.068Z,49.97
2018-12-14T02:04:51.550Z,53.07
2018-12-14T02:07:19.045Z,52.80
2018-12-14T02:09:46.521Z,52.10
2018-12-14T02:12:14.012Z,55.03
2018-12-14T02:14:41.514Z,49.20
2018-12-14T02:17:08.995Z,55.97
2018-12-14T02:19:36.476Z,51.63
2018-12-14T02:22:03.989Z,51.10
2018-12-14T02:24:31.463Z,57.10
2018-12-14T02:26:58.932Z,53.83
2018-12-14T02:29:26.496Z,53.63
2018-12-14T02:31:54.142Z,45.60
2018-12-14T02:34:21.620Z,52.97
2018-12-14T02:36:49.255Z,52.60
2018-12-14T02:39:16.735Z,58.07
2018-12-14T02:41:44.216Z,51.77
2018-12-14T02:44:11.716Z,51.63
2018-12-14T02:46:39.196Z,52.17
2018-12-14T02:49:06.681Z,52.17
2018-12-14T02:51:34.203Z,56.50
2018-12-14T02:54:01.673Z,55.20
2018-12-14T02:56:29.157Z,49.70
2018-12-14T02:58:56.775Z,48.03
2018-12-14T03:01:24.253Z,48.80
2018-12-14T03:03:51.733Z,49.90
2018-12-14T03:06:19.240Z,56.37
2018-12-14T03:08:46.712Z,51.80
2018-12-14T03:11:14.194Z,57.13
2018-12-14T03:13:41.690Z,50.73
2018-12-14T03:16:09.160Z,53.03
2018-12-14T03:18:36.633Z,55.70
2018-12-14T03:21:04.148Z,55.53
2018-12-14T03:23:31.700Z,49.57
2018-12-14T03:25:59.274Z,62.17
2018-12-14T03:28:26.774Z,52.37
2018-12-14T03:30:54.249Z,53.20
2018-12-14T03:33:21.933Z,53.43
2018-12-14T03:35:49.441Z,55.73
2018-12-14T03:38:16.929Z,53.30
2018-12-14T03:40:44.414Z,56.80
2018-12-14T03:43:11.915Z,55.97
2018-12-14T03:45:39.384Z,60.03
2018-12-14T03:48:06.867Z,51.57
2018-12-14T03:50:34.372Z,57.70
2018-12-14T03:53:01.855Z,54.13
2018-12-14T03:55:29.335Z,56.83
2018-12-14T03:57:57.252Z,54.23
2018-12-14T04:00:24.868Z,55.93
2018-12-14T04:02:52.735Z,52.73
2018-12-14T04:05:20.438Z,59.30
2018-12-14T04:07:47.912Z,55.17
2018-12-14T04:10:15.560Z,59.80
2018-12-14T04:12:43.080Z,58.10
2018-12-14T04:15:10.559Z,55.97
2018-12-14T04:17:38.033Z,55.10
2018-12-14T04:20:05.734Z,59.53
2018-12-14T04:22:33.220Z,54.47
2018-12-14T04:25:00.696Z,53.13
2018-12-14T04:27:28.193Z,52.13
2018-12-14T04:29:55.664Z,62.03
2018-12-14T04:32:23.620Z,60.03
2018-12-14T04:34:51.463Z,57.07
2018-12-14T04:37:18.954Z,59.57
2018-12-14T04:39:46.444Z,55.83
2018-12-14T04:42:14.045Z,64.00
2018-12-14T04:44:41.529Z,56.33
2018-12-14T04:47:09.505Z,57.77
2018-12-14T04:49:37.625Z,62.80
2018-12-14T04:52:07.090Z,60.50
2018-12-14T04:54:34.573Z,62.43
2018-12-14T04:57:02.072Z,56.63
2018-12-14T04:59:29.543Z,60.70
2018-12-14T05:01:57.020Z,59.57
2018-12-14T05:04:24.524Z,59.10
2018-12-14T05:06:51.997Z,61.43
2018-12-14T05:09:19.468Z,61.40
2018-12-14T05:11:47.012Z,60.67
2018-12-14T05:14:14.589Z,60.83
2018-12-14T05:16:42.070Z,59.07
2018-12-14T05:19:09.580Z,58.87
2018-12-14T05:21:37.140Z,58.00
2018-12-14T05:24:04.616Z,57.47
2018-12-14T05:26:32.125Z,58.13
2018-12-14T05:28:59.606Z,56.93
2018-12-14T05:31:27.080Z,59.30
2018-12-14T05:33:55.097Z,58.57
2018-12-14T05:36:23.169Z,50.87
2018-12-14T05:38:50.648Z,62.57
2018-12-14T05:41:18.168Z,65.67
2018-12-14T05:43:45.641Z,58.60
2018-12-14T05:46:13.121Z,56.80
2018-12-14T05:48:40.624Z,62.37
2018-12-14T05:51:08.101Z,52.27
2018-12-14T05:53:35.573Z,61.90
2018-12-14T05:56:03.072Z,56.53
2018-12-14T05:58:30.544Z,54.37
2018-12-14T06:00:58.022Z,60.87
2018-12-14T06:03:25.521Z,59.47
2018-12-14T06:05:53.005Z,57.73
2018-12-14T06:08:20.480Z,59.87
2018-12-14T06:10:47.982Z,61.23
2018-12-14T06:13:15.457Z,63.80
2018-12-14T06:15:42.932Z,59.80
2018-12-14T06:18:10.439Z,54.73
2018-12-14T06:20:37.925Z,57.40
2018-12-14T06:23:05.404Z,63.57
2018-12-14T06:25:32.900Z,60.43
2018-12-14T06:28:00.379Z,68.97
2018-12-14T06:30:27.853Z,56.87
2018-12-14T06:32:55.360Z,59.93
2018-12-14T06:35:22.832Z,61.60
2018-12-14T06:37:50.744Z,60.50
2018-12-14T06:40:18.241Z,68.83
2018-12-14T06:42:45.725Z,65.77
2018-12-14T06:45:13.192Z,67.03
2018-12-14T06:47:40.904Z,69.93
2018-12-14T06:50:08.384Z,67.43
2018-12-14T06:52:35.855Z,69.53
2018-12-14T06:55:03.676Z,69.00
2018-12-14T06:57:31.154Z,68.93
2018-12-14T06:59:58.644Z,62.63
2018-12-14T07:02:26.153Z,75.40
2018-12-14T07:04:53.637Z,71.67
2018-12-14T07:07:21.120Z,66.97
2018-12-14T07:09:48.632Z,68.27
2018-12-14T07:12:16.117Z,66.97
2018-12-14T07:14:43.623Z,70.90
2018-12-14T07:17:11.128Z,69.93
2018-12-14T07:19:38.612Z,74.17
2018-12-14T07:22:06.101Z,76.07
2018-12-14T07:24:33.613Z,73.80
2018-12-14T07:27:01.278Z,71.97
2018-12-14T07:29:28.831Z,76.83
2018-12-14T07:31:56.413Z,80.10
2018-12-14T07:34:23.901Z,75.47
2018-12-14T07:36:51.373Z,80.83
2018-12-14T07:39:19.280Z,77.27
2018-12-14T07:41:46.760Z,85.77
2018-12-14T07:44:14.544Z,85.70
2018-12-14T07:46:42.040Z,81.87
2018-12-14T07:49:09.521Z,80.43
2018-12-14T07:51:38.848Z,83.60
2018-12-14T07:54:06.384Z,80.37
2018-12-14T07:56:33.864Z,81.17
2018-12-14T07:59:01.644Z,83.40
2018-12-14T08:01:29.165Z,80.70
2018-12-14T08:03:56.640Z,88.53
2018-12-14T08:06:24.120Z,83.23
2018-12-14T08:08:51.632Z,83.57
2018-12-14T08:11:19.104Z,85.03
2018-12-14T08:13:48.842Z,88.27
2018-12-14T08:16:16.357Z,84.57
2018-12-14T08:18:46.645Z,82.70
2018-12-14T08:21:14.124Z,81.70
2018-12-14T08:23:42.826Z,86.83
2018-12-14T08:26:10.308Z,86.63
2018-12-14T08:28:37.789Z,86.60
2018-12-14T08:31:05.355Z,84.40
2018-12-14T08:33:35.226Z,86.60
2018-12-14T08:36:02.711Z,87.07
2018-12-14T08:38:30.213Z,86.60
2018-12-14T08:41:00.335Z,84.17
2018-12-14T08:43:27.959Z,81.60
2018-12-14T08:45:55.736Z,86.57
2018-12-14T08:48:23.336Z,84.40
2018-12-14T08:50:50.928Z,80.20
2018-12-14T08:53:18.834Z,87.47
2018-12-14T08:55:46.315Z,76.17
2018-12-14T08:58:13.795Z,96.57
2018-12-14T09:00:41.308Z,78.40
2018-12-14T09:03:08.784Z,82.00
2018-12-14T09:05:36.260Z,85.37
2018-12-14T09:08:03.769Z,79.90
2018-12-14T09:10:31.341Z,76.47
2018-12-14T09:12:58.810Z,81.17
2018-12-14T09:15:26.473Z,77.43
2018-12-14T09:17:53.952Z,76.50
2018-12-14T09:20:21.429Z,77.63
2018-12-14T09:22:49.525Z,77.80
2018-12-14T09:25:16.998Z,79.00
2018-12-14T09:27:50.048Z,79.67
2018-12-14T09:30:17.723Z,78.40
2018-12-14T09:32:45.197Z,74.23
2018-12-14T09:35:12.674Z,77.97
2018-12-14T09:37:40.176Z,79.93
2018-12-14T09:40:07.657Z,77.57
2018-12-14T09:42:35.136Z,79.53
2018-12-14T09:45:02.644Z,80.77
2018-12-14T09:47:30.498Z,77.23
2018-12-14T09:49:57.979Z,81.97
2018-12-14T09:52:25.479Z,79.17
2018-12-14T09:54:52.957Z,72.63
2018-12-14T09:57:20.432Z,77.37
2018-12-14T09:59:47.951Z,71.57
2018-12-14T10:02:15.428Z,80.33
2018-12-14T10:04:42.915Z,71.60
2018-12-14T10:07:10.408Z,77.90
2018-12-14T10:09:37.885Z,70.03
2018-12-14T10:12:05.357Z,74.47
2018-12-14T10:14:32.897Z,75.97
2018-12-14T10:17:00.381Z,74.63
2018-12-14T10:19:27.860Z,69.77
2018-12-14T10:21:55.482Z,72.63
2018-12-14T10:24:22.964Z,76.43
2018-12-14T10:26:50.472Z,77.67
2018-12-14T10:29:17.973Z,80.07
2018-12-14T10:31:45.448Z,77.13
2018-12-14T10:34:12.931Z,79.13
2018-12-14T10:36:40.429Z,71.80
2018-12-14T10:39:07.907Z,75.77
2018-12-14T10:41:35.388Z,82.83
2018-12-14T10:44:07.400Z,80.63
2018-12-14T10:46:32.521Z,77.93
2018-12-14T10:49:00.048Z,79.80
2018-12-14T10:51:27.749Z,87.53
2018-12-14T10:53:55.231Z,80.37
2018-12-14T10:56:22.701Z,83.03
2018-12-14T10:58:50.205Z,70.10
2018-12-14T11:01:23.400Z,72.27
2018-12-14T11:03:50.895Z,70.50
2018-12-14T11:06:18.410Z,68.10
2018-12-14T11:08:45.888Z,72.73
2018-12-14T11:11:13.511Z,64.37
2018-12-14T11:13:40.995Z,64.20
2018-12-14T11:16:08.471Z,64.40
2018-12-14T11:18:35.983Z,63.67
2018-12-14T11:21:03.465Z,60.10
2018-12-14T11:23:30.967Z,58.47
2018-12-14T11:25:58.610Z,55.10
2018-12-14T11:28:26.089Z,59.23
2018-12-14T11:30:54.518Z,55.53
2018-12-14T11:33:22.028Z,55.53
2018-12-14T11:35:49.513Z,52.53
2018-12-14T11:38:17.005Z,55.90
2018-12-14T11:40:44.528Z,53.57
2018-12-14T11:43:12.005Z,54.73
2018-12-14T11:45:39.493Z,52.87
2018-12-14T11:48:07.007Z,54.83
2018-12-14T11:50:34.665Z,53.90
2018-12-14T11:53:02.145Z,53.73
2018-12-14T11:55:29.653Z,51.13
2018-12-14T11:57:57.128Z,48.07
2018-12-14T12:00:24.613Z,53.23
2018-12-14T12:02:52.157Z,48.67
2018-12-14T12:05:19.639Z,49.30
2018-12-14T12:07:47.918Z,46.37
2018-12-14T12:10:15.581Z,46.57
2018-12-14T12:12:43.253Z,50.20
2018-12-14T12:15:10.734Z,48.97
2018-12-14T12:17:39.046Z,49.00
2018-12-14T12:20:07.317Z,49.97
2018-12-14T12:22:34.797Z,46.93
2018-12-14T12:25:02.316Z,46.73
2018-12-14T12:27:29.795Z,52.90
2018-12-14T12:29:57.281Z,51.03
2018-12-14T12:32:24.805Z,56.53
2018-12-14T12:34:52.280Z,52.20
2018-12-14T12:37:20.887Z,50.30
2018-12-14T12:39:48.393Z,52.30
2018-12-14T12:42:15.884Z,55.30
2018-12-14T12:44:43.356Z,57.00
2018-12-14T12:47:10.861Z,53.37
2018-12-14T12:49:38.337Z,53.20
2018-12-14T12:52:05.865Z,59.30
2018-12-14T12:54:33.373Z,55.33
2018-12-14T12:57:00.849Z,52.63
2018-12-14T12:59:28.665Z,54.53
2018-12-14T13:01:56.264Z,57.17
2018-12-14T13:04:23.740Z,48.97
2018-12-14T13:06:51.301Z,54.87
2018-12-14T13:09:18.837Z,54.20
2018-12-14T13:11:46.313Z,52.00
2018-12-14T13:14:13.805Z,51.97
2018-12-14T13:16:41.327Z,49.10
2018-12-14T13:19:08.804Z,46.33
2018-12-14T13:21:36.287Z,49.07
2018-12-14T13:24:04.216Z,45.87
2018-12-14T13:26:31.692Z,47.20
2018-12-14T13:28:59.173Z,44.67
2018-12-14T13:31:26.669Z,42.47
2018-12-14T13:33:54.151Z,39.47
2018-12-14T13:36:21.634Z,45.17
2018-12-14T13:38:49.143Z,38.17
2018-12-14T13:41:16.638Z,45.80
2018-12-14T13:43:44.112Z,39.13
2018-12-14T13:46:11.624Z,37.33
2018-12-14T13:48:39.102Z,35.50
2018-12-14T13:51:06.587Z,33.80
2018-12-14T13:53:34.616Z,40.07
2018-12-14T13:56:02.095Z,36.97
2018-12-14T13:58:29.569Z,36.80
2018-12-14T14:00:57.116Z,33.30
2018-12-14T14:03:24.597Z,34.70
2018-12-14T14:05:52.077Z,34.30
2018-12-14T14:08:19.584Z,29.53
2018-12-14T14:10:47.065Z,31.70
2018-12-14T14:13:14.544Z,31.10
2018-12-14T14:15:42.047Z,33.17
2018-12-14T14:18:09.520Z,30.13
2018-12-14T14:20:37.000Z,33.63
2018-12-14T14:23:04.617Z,37.77
2018-12-14T14:25:32.585Z,28.70
2018-12-14T14:28:00.064Z,25.70
2018-12-14T14:30:27.561Z,25.80
2018-12-14T14:32:55.038Z,23.53
2018-12-14T14:35:22.514Z,25.43
2018-12-14T14:37:50.017Z,24.33
2018-12-14T14:40:17.504Z,25.53
2018-12-14T14:42:44.976Z,20.10
2018-12-14T14:45:12.484Z,20.83
2018-12-14T14:47:40.034Z,17.93
2018-12-14T14:50:14.947Z,18.20
2018-12-14T14:52:42.420Z,18.37
2018-12-14T14:55:10.313Z,24.80
2018-12-14T14:57:38.149Z,24.90
2018-12-14T15:00:06.512Z,30.87
2018-12-14T15:02:33.993Z,23.87
2018-12-14T15:05:01.506Z,24.30
2018-12-14T15:07:29.035Z,24.37
2018-12-14T15:09:56.824Z,22.97
2018-12-14T15:12:24.331Z,19.70
2018-12-14T15:14:51.802Z,20.90
2018-12-14T15:17:19.288Z,22.67
2018-12-14T15:19:46.808Z,19.27
2018-12-14T15:22:14.284Z,24.20
2018-12-14T15:24:41.758Z,21.03
2018-12-14T15:27:09.272Z,22.40
2018-12-14T15:29:36.777Z,17.17
2018-12-14T15:32:04.348Z,18.90
2018-12-14T15:34:31.865Z,20.90
2018-12-14T15:36:59.354Z,20.97
2018-12-14T15:39:26.821Z,17.87
2018-12-14T15:41:54.328Z,16.07
2018-12-14T15:44:21.862Z,20.37
2018-12-14T15:46:49.367Z,22.17
2018-12-14T15:49:16.993Z,20.63
2018-12-14T15:51:44.761Z,21.43
2018-12-14T15:54:12.356Z,20.50
2018-12-14T15:56:40.637Z,23.70
2018-12-14T15:59:08.109Z,22.40
2018-12-14T16:01:35.602Z,20.67
2018-12-14T16:04:03.112Z,19.07
2018-12-14T16:06:30.588Z,20.73
2018-12-14T16:08:58.065Z,24.10
2018-12-14T16:11:25.672Z,21.47
2018-12-14T16:13:53.580Z,23.87
2018-12-14T16:16:21.059Z,25.20
2018-12-14T16:18:48.610Z,25.83
2018-12-14T16:21:16.090Z,28.87
2018-12-14T16:23:43.566Z,35.00
2018-12-14T16:26:11.065Z,36.27
2018-12-14T16:28:40.256Z,29.73
2018-12-14T16:31:07.773Z,30.80
2018-12-14T16:33:35.268Z,28.57
2018-12-14T16:36:02.757Z,27.47
2018-12-14T16:38:30.237Z,24.43
2018-12-14T16:40:57.753Z,26.53
2018-12-14T16:43:25.234Z,29.00
2018-12-14T16:45:52.705Z,26.73
2018-12-14T16:48:20.217Z,32.07
2018-12-14T16:50:47.702Z,29.97
2018-12-14T16:53:15.191Z,28.63
2018-12-14T16:55:42.697Z,26.33
2018-12-14T16:58:10.323Z,27.70
2018-12-14T17:00:37.813Z,24.63
2018-12-14T17:03:05.320Z,26.07
2018-12-14T17:05:32.805Z,27.70
2018-12-14T17:08:00.304Z,28.07
2018-12-14T17:10:27.814Z,25.20
2018-12-14T17:12:55.294Z,27.43
2018-12-14T17:15:22.769Z,24.80
2018-12-14T17:17:50.285Z,28.47
2018-12-14T17:20:17.767Z,32.00
2018-12-14T17:22:45.252Z,28.50
2018-12-14T17:25:12.801Z,24.57
2018-12-14T17:27:40.280Z,27.13
2018-12-14T17:30:07.846Z,31.67
2018-12-14T17:32:35.349Z,31.67
2018-12-14T17:35:02.835Z,28.43
2018-12-14T17:37:30.352Z,29.97
2018-12-14T17:39:57.852Z,31.97
2018-12-14T17:42:25.328Z,31.63
2018-12-14T17:44:52.833Z,40.93
2018-12-14T17:47:20.341Z,35.57
2018-12-14T17:49:47.824Z,30.10
2018-12-14T17:52:15.302Z,35.73
2018-12-14T17:54:42.797Z,36.30
2018-12-14T17:57:10.276Z,33.57
2018-12-14T17:59:38.117Z,36.73
2018-12-14T18:02:05.618Z,35.70
2018-12-14T18:04:33.120Z,40.93
2018-12-14T18:07:00.617Z,35.73
2018-12-14T18:09:28.132Z,38.17
2018-12-14T18:11:55.613Z,41.43
2018-12-14T18:14:23.104Z,39.03
2018-12-14T18:16:50.613Z,37.17
2018-12-14T18:19:18.093Z,36.93
2018-12-14T18:21:45.569Z,40.73
2018-12-14T18:24:13.088Z,39.13
2018-12-14T18:26:40.560Z,42.27
2018-12-14T18:29:08.053Z,42.60
2018-12-14T18:31:35.564Z,45.17
2018-12-14T18:34:03.047Z,43.73
2018-12-14T18:36:30.552Z,40.83
2018-12-14T18:38:58.077Z,41.60
2018-12-14T18:41:25.549Z,41.37
2018-12-14T18:43:53.027Z,45.90
2018-12-14T18:46:20.530Z,44.37
2018-12-14T18:48:48.009Z,44.00
2018-12-14T18:51:15.502Z,44.97
2018-12-14T18:53:45.024Z,44.87
2018-12-14T18:56:12.497Z,45.60
2018-12-14T18:58:39.991Z,44.00
2018-12-14T19:01:07.509Z,44.07
2018-12-14T19:03:34.984Z,44.67
2018-12-14T19:06:02.480Z,52.53
2018-12-14T19:08:29.985Z,47.00
2018-12-14T19:10:57.473Z,50.37
2018-12-14T19:13:25.041Z,49.10
2018-12-14T19:15:52.552Z,47.63
2018-12-14T19:18:20.029Z,47.13
2018-12-14T19:20:47.506Z,44.67
2018-12-14T19:23:19.642Z,48.37
2018-12-14T19:25:44.545Z,50.30
2018-12-14T19:28:12.020Z,48.23
2018-12-14T19:30:39.512Z,51.57
2018-12-14T19:33:06.989Z,50.03
2018-12-14T19:35:34.474Z,46.73
2018-12-14T19:38:02.084Z,55.00
2018-12-14T19:40:29.574Z,51.87
2018-12-14T19:42:57.055Z,52.50
2018-12-14T19:45:24.552Z,55.53
2018-12-14T19:47:52.031Z,52.57
2018-12-14T19:50:19.512Z,58.43
2018-12-14T19:52:47.043Z,57.83
2018-12-14T19:55:14.516Z,56.93
2018-12-14T19:57:41.996Z,52.43
2018-12-14T20:00:11.781Z,56.77
2018-12-14T20:02:39.580Z,54.83
2018-12-14T20:05:08.044Z,57.17
2018-12-14T20:07:35.547Z,55.97
2018-12-14T20:10:03.619Z,57.23
2018-12-14T20:12:31.125Z,56.47
2018-12-14T20:14:58.641Z,55.57
2018-12-14T20:17:26.123Z,54.17
2018-12-14T20:19:53.593Z,57.90
2018-12-14T20:22:21.102Z,56.90
2018-12-14T20:24:48.588Z,55.73
2018-12-14T20:27:16.068Z,59.70
2018-12-14T20:29:43.580Z,52.63
2018-12-14T20:32:11.069Z,54.03
2018-12-14T20:34:38.549Z,63.80
2018-12-14T20:37:06.054Z,54.70
2018-12-14T20:39:33.532Z,55.83
2018-12-14T20:42:01.011Z,60.63
2018-12-14T20:44:28.510Z,58.70
2018-12-14T20:46:55.988Z,57.93
2018-12-14T20:49:23.469Z,60.63
2018-12-14T20:51:50.967Z,58.17
2018-12-14T20:54:18.440Z,63.60
2018-12-14T20:56:51.442Z,62.03
2018-12-14T20:59:15.436Z,62.87
2018-12-14T21:01:42.924Z,63.40
2018-12-14T21:04:10.736Z,66.60
2018-12-14T21:06:38.239Z,62.37
2018-12-14T21:09:06.117Z,60.03
2018-12-14T21:11:33.592Z,57.77
2018-12-14T21:14:01.100Z,58.97
2018-12-14T21:16:28.576Z,65.73
2018-12-14T21:18:56.050Z,67.00
2018-12-14T21:21:23.556Z,63.27
2018-12-14T21:23:51.048Z,66.53
2018-12-14T21:26:18.525Z,67.73
2018-12-14T21:28:46.036Z,65.70
2018-12-14T21:31:13.520Z,64.07
2018-12-14T21:33:41.003Z,64.37
2018-12-14T21:36:08.509Z,57.23
2018-12-14T21:38:35.990Z,61.57
2018-12-14T21:41:03.475Z,58.50
2018-12-14T21:43:30.976Z,55.53
2018-12-14T21:45:58.501Z,59.77
2018-12-14T21:48:25.989Z,64.00
2018-12-14T21:50:53.535Z,64.67
2018-12-14T21:53:21.037Z,60.63
2018-12-14T21:55:48.521Z,61.70
2018-12-14T21:58:16.028Z,56.93
2018-12-14T22:00:43.509Z,56.03
2018-12-14T22:03:10.987Z,60.73
2018-12-14T22:05:38.552Z,53.50
2018-12-14T22:08:06.100Z,58.57
2018-12-14T22:10:33.592Z,55.20
2018-12-14T22:13:01.112Z,58.43
2018-12-14T22:15:28.590Z,54.40
2018-12-14T22:17:56.076Z,55.37
2018-12-14T22:20:23.606Z,56.57
2018-12-14T22:22:51.090Z,61.67
2018-12-14T22:25:18.565Z,56.30
2018-12-14T22:27:46.079Z,56.20
2018-12-14T22:30:13.565Z,59.50
2018-12-14T22:32:41.081Z,58.80
2018-12-14T22:35:08.673Z,67.67
2018-12-14T22:37:36.161Z,66.87
2018-12-14T22:40:05.236Z,70.50
2018-12-14T22:42:32.736Z,69.40
2018-12-14T22:45:00.220Z,62.47
2018-12-14T22:47:27.709Z,68.23
2018-12-14T22:49:55.228Z,66.90
2018-12-14T22:52:22.713Z,64.37
2018-12-14T22:54:50.189Z,70.03
2018-12-14T22:57:17.699Z,57.23
2018-12-14T22:59:45.177Z,63.13
2018-12-14T23:02:12.860Z,62.90
2018-12-14T23:04:40.367Z,59.83
2018-12-14T23:07:07.856Z,63.33
2018-12-14T23:09:35.332Z,62.60
2018-12-14T23:12:02.847Z,63.43
2018-12-14T23:14:30.317Z,66.73
2018-12-14T23:16:57.796Z,65.37
2018-12-14T23:19:25.306Z,64.83
2018-12-14T23:21:52.780Z,64.13
2018-12-14T23:24:20.256Z,62.97
2018-12-14T23:26:47.759Z,65.13
2018-12-14T23:29:15.236Z,59.27
2018-12-14T23:31:42.712Z,55.00
2018-12-14T23:34:10.219Z,63.93
2018-12-14T23:36:37.699Z,63.10
2018-12-14T23:39:06.064Z,58.63
2018-12-14T23:41:33.576Z,63.00
2018-12-14T23:44:01.060Z,65.23
2018-12-14T23:46:28.538Z,60.13
2018-12-14T23:48:56.046Z,65.87
2018-12-14T23:51:23.517Z,58.43
2018-12-14T23:53:50.994Z,58.33
2018-12-14T23:56:18.489Z,65.27
2018-12-14T23:58:45.965Z,62.50
